sensor_id;sensor_type;location;lat;lon;timestamp;temperature;humidity
68842;SHT35;55849;48.482;2.332;2023-04-06T00:01:15;13.58;55.22
68842;SHT35;55849;48.482;2.332;2023-04-06T00:04:16;13.57;55.58
68842;SHT35;55849;48.482;2.332;2023-04-06T00:07:18;13.54;55.51
68842;SHT35;55849;48.482;2.332;2023-04-06T00:10:19;13.48;55.58
68842;SHT35;55849;48.482;2.332;2023-04-06T00:13:21;13.50;55.67
68842;SHT35;55849;48.482;2.332;2023-04-06T00:16:24;13.46;55.87
68842;SHT35;55849;48.482;2.332;2023-04-06T00:19:26;13.43;56.43
68842;SHT35;55849;48.482;2.332;2023-04-06T00:22:27;13.42;56.48
68842;SHT35;55849;48.482;2.332;2023-04-06T00:25:29;13.39;56.25
68842;SHT35;55849;48.482;2.332;2023-04-06T00:28:31;13.43;56.50
68842;SHT35;55849;48.482;2.332;2023-04-06T00:31:34;13.40;56.33
68842;SHT35;55849;48.482;2.332;2023-04-06T00:34:35;13.40;56.44
68842;SHT35;55849;48.482;2.332;2023-04-06T00:37:37;13.37;56.49
68842;SHT35;55849;48.482;2.332;2023-04-06T00:40:39;13.39;56.44
68842;SHT35;55849;48.482;2.332;2023-04-06T00:43:40;13.36;56.51
68842;SHT35;55849;48.482;2.332;2023-04-06T00:46:44;13.37;56.76
68842;SHT35;55849;48.482;2.332;2023-04-06T00:49:46;13.33;56.92
68842;SHT35;55849;48.482;2.332;2023-04-06T00:52:47;13.32;57.09
68842;SHT35;55849;48.482;2.332;2023-04-06T00:55:49;13.29;57.24
68842;SHT35;55849;48.482;2.332;2023-04-06T00:58:51;13.30;57.18
68842;SHT35;55849;48.482;2.332;2023-04-06T01:01:54;13.30;57.13
68842;SHT35;55849;48.482;2.332;2023-04-06T01:04:56;13.26;56.96
68842;SHT35;55849;48.482;2.332;2023-04-06T01:07:57;13.24;57.32
68842;SHT35;55849;48.482;2.332;2023-04-06T01:10:59;13.24;57.37
68842;SHT35;55849;48.482;2.332;2023-04-06T01:14:02;13.24;57.58
68842;SHT35;55849;48.482;2.332;2023-04-06T01:17:05;13.19;57.68
68842;SHT35;55849;48.482;2.332;2023-04-06T01:20:07;13.18;56.96
68842;SHT35;55849;48.482;2.332;2023-04-06T01:23:10;13.16;57.28
68842;SHT35;55849;48.482;2.332;2023-04-06T01:26:12;13.13;57.42
68842;SHT35;55849;48.482;2.332;2023-04-06T01:29:14;13.12;57.32
68842;SHT35;55849;48.482;2.332;2023-04-06T01:32:16;13.10;57.64
68842;SHT35;55849;48.482;2.332;2023-04-06T01:35:17;13.08;58.04
68842;SHT35;55849;48.482;2.332;2023-04-06T01:38:21;13.08;58.36
68842;SHT35;55849;48.482;2.332;2023-04-06T01:41:22;13.03;58.01
68842;SHT35;55849;48.482;2.332;2023-04-06T01:44:24;13.02;58.04
68842;SHT35;55849;48.482;2.332;2023-04-06T01:47:26;13.03;58.19
68842;SHT35;55849;48.482;2.332;2023-04-06T01:50:27;12.99;58.38
68842;SHT35;55849;48.482;2.332;2023-04-06T01:53:30;12.99;58.30
68842;SHT35;55849;48.482;2.332;2023-04-06T01:56:32;13.01;58.44
68842;SHT35;55849;48.482;2.332;2023-04-06T01:59:34;12.98;58.44
68842;SHT35;55849;48.482;2.332;2023-04-06T02:02:35;12.96;58.68
68842;SHT35;55849;48.482;2.332;2023-04-06T02:05:37;12.96;58.69
68842;SHT35;55849;48.482;2.332;2023-04-06T02:08:40;12.94;58.78
68842;SHT35;55849;48.482;2.332;2023-04-06T02:11:42;12.92;58.94
68842;SHT35;55849;48.482;2.332;2023-04-06T02:14:43;12.88;59.13
68842;SHT35;55849;48.482;2.332;2023-04-06T02:17:45;12.89;59.02
68842;SHT35;55849;48.482;2.332;2023-04-06T02:20:46;12.87;58.92
68842;SHT35;55849;48.482;2.332;2023-04-06T02:23:50;12.85;58.88
68842;SHT35;55849;48.482;2.332;2023-04-06T02:26:51;12.85;59.00
68842;SHT35;55849;48.482;2.332;2023-04-06T02:29:53;12.83;59.07
68842;SHT35;55849;48.482;2.332;2023-04-06T02:32:54;12.80;59.04
68842;SHT35;55849;48.482;2.332;2023-04-06T02:35:56;12.77;59.24
68842;SHT35;55849;48.482;2.332;2023-04-06T02:38:59;12.74;58.79
68842;SHT35;55849;48.482;2.332;2023-04-06T02:42:01;12.73;58.65
68842;SHT35;55849;48.482;2.332;2023-04-06T02:45:03;12.71;59.10
68842;SHT35;55849;48.482;2.332;2023-04-06T02:48:05;12.73;59.17
68842;SHT35;55849;48.482;2.332;2023-04-06T02:51:07;12.71;59.00
68842;SHT35;55849;48.482;2.332;2023-04-06T02:54:10;12.71;58.11
68842;SHT35;55849;48.482;2.332;2023-04-06T02:57:11;12.69;58.50
68842;SHT35;55849;48.482;2.332;2023-04-06T03:00:13;12.68;58.28
68842;SHT35;55849;48.482;2.332;2023-04-06T03:03:15;12.71;58.54
68842;SHT35;55849;48.482;2.332;2023-04-06T03:06:17;12.73;58.92
68842;SHT35;55849;48.482;2.332;2023-04-06T03:09:20;12.71;58.60
68842;SHT35;55849;48.482;2.332;2023-04-06T03:12:22;12.69;58.83
68842;SHT35;55849;48.482;2.332;2023-04-06T03:15:23;12.69;58.73
68842;SHT35;55849;48.482;2.332;2023-04-06T03:18:25;12.67;58.74
68842;SHT35;55849;48.482;2.332;2023-04-06T03:21:27;12.69;59.18
68842;SHT35;55849;48.482;2.332;2023-04-06T03:24:30;12.67;59.05
68842;SHT35;55849;48.482;2.332;2023-04-06T03:27:31;12.65;59.15
68842;SHT35;55849;48.482;2.332;2023-04-06T03:30:34;12.65;59.03
68842;SHT35;55849;48.482;2.332;2023-04-06T03:33:35;12.65;59.05
68842;SHT35;55849;48.482;2.332;2023-04-06T03:36:37;12.65;58.30
68842;SHT35;55849;48.482;2.332;2023-04-06T03:39:40;12.61;58.41
68842;SHT35;55849;48.482;2.332;2023-04-06T03:42:41;12.63;58.56
68842;SHT35;55849;48.482;2.332;2023-04-06T03:45:43;12.64;58.81
68842;SHT35;55849;48.482;2.332;2023-04-06T03:48:47;12.65;58.91
68842;SHT35;55849;48.482;2.332;2023-04-06T03:51:49;12.63;59.15
68842;SHT35;55849;48.482;2.332;2023-04-06T03:54:53;12.63;59.23
68842;SHT35;55849;48.482;2.332;2023-04-06T03:57:55;12.64;58.56
68842;SHT35;55849;48.482;2.332;2023-04-06T04:00:56;12.59;58.17
68842;SHT35;55849;48.482;2.332;2023-04-06T04:03:58;12.59;58.48
68842;SHT35;55849;48.482;2.332;2023-04-06T04:07:00;12.57;58.49
68842;SHT35;55849;48.482;2.332;2023-04-06T04:10:04;12.57;58.60
68842;SHT35;55849;48.482;2.332;2023-04-06T04:13:05;12.54;58.30
68842;SHT35;55849;48.482;2.332;2023-04-06T04:16:07;12.54;58.87
68842;SHT35;55849;48.482;2.332;2023-04-06T04:19:09;12.54;58.81
68842;SHT35;55849;48.482;2.332;2023-04-06T04:22:10;12.54;58.35
68842;SHT35;55849;48.482;2.332;2023-04-06T04:25:13;12.53;58.38
68842;SHT35;55849;48.482;2.332;2023-04-06T04:28:15;12.53;58.93
68842;SHT35;55849;48.482;2.332;2023-04-06T04:31:17;12.56;58.85
68842;SHT35;55849;48.482;2.332;2023-04-06T04:34:20;12.56;59.29
68842;SHT35;55849;48.482;2.332;2023-04-06T04:37:24;12.56;59.25
68842;SHT35;55849;48.482;2.332;2023-04-06T04:40:27;12.56;59.16
68842;SHT35;55849;48.482;2.332;2023-04-06T04:43:28;12.53;58.55
68842;SHT35;55849;48.482;2.332;2023-04-06T04:46:30;12.49;58.83
68842;SHT35;55849;48.482;2.332;2023-04-06T04:49:32;12.51;59.05
68842;SHT35;55849;48.482;2.332;2023-04-06T04:52:33;12.53;59.20
68842;SHT35;55849;48.482;2.332;2023-04-06T04:55:36;12.54;59.53
68842;SHT35;55849;48.482;2.332;2023-04-06T04:58:38;12.53;59.91
68842;SHT35;55849;48.482;2.332;2023-04-06T05:01:40;12.53;59.94
68842;SHT35;55849;48.482;2.332;2023-04-06T05:04:41;12.51;59.98
68842;SHT35;55849;48.482;2.332;2023-04-06T05:07:43;12.53;60.02
68842;SHT35;55849;48.482;2.332;2023-04-06T05:10:46;12.50;59.57
68842;SHT35;55849;48.482;2.332;2023-04-06T05:13:48;12.51;59.62
68842;SHT35;55849;48.482;2.332;2023-04-06T05:16:50;12.50;59.95
68842;SHT35;55849;48.482;2.332;2023-04-06T05:19:51;12.50;59.67
68842;SHT35;55849;48.482;2.332;2023-04-06T05:22:53;12.49;59.46
68842;SHT35;55849;48.482;2.332;2023-04-06T05:25:56;12.47;59.51
68842;SHT35;55849;48.482;2.332;2023-04-06T05:28:58;12.47;59.43
68842;SHT35;55849;48.482;2.332;2023-04-06T05:32:00;12.47;59.78
68842;SHT35;55849;48.482;2.332;2023-04-06T05:35:02;12.46;60.66
68842;SHT35;55849;48.482;2.332;2023-04-06T05:38:07;12.47;60.60
68842;SHT35;55849;48.482;2.332;2023-04-06T05:41:10;12.50;61.32
68842;SHT35;55849;48.482;2.332;2023-04-06T05:44:12;12.53;62.09
68842;SHT35;55849;48.482;2.332;2023-04-06T05:47:13;12.51;62.64
68842;SHT35;55849;48.482;2.332;2023-04-06T05:50:15;12.53;62.02
68842;SHT35;55849;48.482;2.332;2023-04-06T05:53:17;12.56;62.43
68842;SHT35;55849;48.482;2.332;2023-04-06T05:56:20;12.56;63.41
68842;SHT35;55849;48.482;2.332;2023-04-06T05:59:22;12.59;63.12
68842;SHT35;55849;48.482;2.332;2023-04-06T06:02:24;12.54;63.09
68842;SHT35;55849;48.482;2.332;2023-04-06T06:05:25;12.56;63.42
68842;SHT35;55849;48.482;2.332;2023-04-06T06:08:27;12.53;63.85
68842;SHT35;55849;48.482;2.332;2023-04-06T06:11:30;12.53;63.47
68842;SHT35;55849;48.482;2.332;2023-04-06T06:14:33;12.49;64.01
68842;SHT35;55849;48.482;2.332;2023-04-06T06:17:35;12.51;64.19
68842;SHT35;55849;48.482;2.332;2023-04-06T06:20:37;12.51;63.53
68842;SHT35;55849;48.482;2.332;2023-04-06T06:23:39;12.53;64.27
68842;SHT35;55849;48.482;2.332;2023-04-06T06:26:42;12.54;64.14
68842;SHT35;55849;48.482;2.332;2023-04-06T06:29:44;12.50;64.47
68842;SHT35;55849;48.482;2.332;2023-04-06T06:32:45;12.53;64.96
68842;SHT35;55849;48.482;2.332;2023-04-06T06:35:47;12.53;64.21
68842;SHT35;55849;48.482;2.332;2023-04-06T06:38:49;12.59;64.95
68842;SHT35;55849;48.482;2.332;2023-04-06T06:41:52;12.60;65.09
68842;SHT35;55849;48.482;2.332;2023-04-06T06:44:54;12.60;64.76
68842;SHT35;55849;48.482;2.332;2023-04-06T06:47:56;12.64;64.43
68842;SHT35;55849;48.482;2.332;2023-04-06T06:50:58;12.64;64.65
68842;SHT35;55849;48.482;2.332;2023-04-06T06:53:59;12.68;65.20
68842;SHT35;55849;48.482;2.332;2023-04-06T06:57:02;12.68;65.36
68842;SHT35;55849;48.482;2.332;2023-04-06T07:00:05;12.67;65.16
68842;SHT35;55849;48.482;2.332;2023-04-06T07:03:07;12.68;65.20
68842;SHT35;55849;48.482;2.332;2023-04-06T07:06:09;12.65;65.21
68842;SHT35;55849;48.482;2.332;2023-04-06T07:09:11;12.65;65.65
68842;SHT35;55849;48.482;2.332;2023-04-06T07:12:14;12.64;65.20
68842;SHT35;55849;48.482;2.332;2023-04-06T07:15:16;12.61;65.61
68842;SHT35;55849;48.482;2.332;2023-04-06T07:18:19;12.63;65.31
68842;SHT35;55849;48.482;2.332;2023-04-06T07:21:21;12.59;66.15
68842;SHT35;55849;48.482;2.332;2023-04-06T07:24:22;12.57;66.06
68842;SHT35;55849;48.482;2.332;2023-04-06T07:27:26;12.57;66.25
68842;SHT35;55849;48.482;2.332;2023-04-06T07:30:27;12.60;66.74
68842;SHT35;55849;48.482;2.332;2023-04-06T07:33:29;12.63;67.26
68842;SHT35;55849;48.482;2.332;2023-04-06T07:36:30;12.63;67.29
68842;SHT35;55849;48.482;2.332;2023-04-06T07:39:33;12.65;67.67
68842;SHT35;55849;48.482;2.332;2023-04-06T07:42:37;12.67;68.52
68842;SHT35;55849;48.482;2.332;2023-04-06T07:45:39;12.69;67.76
68842;SHT35;55849;48.482;2.332;2023-04-06T07:48:40;12.73;68.54
68842;SHT35;55849;48.482;2.332;2023-04-06T07:51:42;12.71;68.78
68842;SHT35;55849;48.482;2.332;2023-04-06T07:54:44;12.71;68.90
68842;SHT35;55849;48.482;2.332;2023-04-06T07:57:47;12.74;69.96
68842;SHT35;55849;48.482;2.332;2023-04-06T08:00:49;12.71;70.46
68842;SHT35;55849;48.482;2.332;2023-04-06T08:03:50;12.73;70.15
68842;SHT35;55849;48.482;2.332;2023-04-06T08:06:52;12.74;70.48
68842;SHT35;55849;48.482;2.332;2023-04-06T08:09:54;12.74;70.17
68842;SHT35;55849;48.482;2.332;2023-04-06T08:12:57;12.71;70.29
68842;SHT35;55849;48.482;2.332;2023-04-06T08:15:59;12.71;70.98
68842;SHT35;55849;48.482;2.332;2023-04-06T08:19:00;12.73;71.31
68842;SHT35;55849;48.482;2.332;2023-04-06T08:22:02;12.75;70.62
68842;SHT35;55849;48.482;2.332;2023-04-06T08:25:04;12.75;70.92
68842;SHT35;55849;48.482;2.332;2023-04-06T08:28:07;12.75;70.88
68842;SHT35;55849;48.482;2.332;2023-04-06T08:31:09;12.81;70.91
68842;SHT35;55849;48.482;2.332;2023-04-06T08:34:11;12.84;71.91
68842;SHT35;55849;48.482;2.332;2023-04-06T08:37:12;12.85;72.04
68842;SHT35;55849;48.482;2.332;2023-04-06T08:40:14;12.89;72.07
68842;SHT35;55849;48.482;2.332;2023-04-06T08:43:19;12.91;72.46
68842;SHT35;55849;48.482;2.332;2023-04-06T08:46:24;12.96;72.49
68842;SHT35;55849;48.482;2.332;2023-04-06T08:49:29;12.98;71.09
68842;SHT35;55849;48.482;2.332;2023-04-06T08:52:32;13.01;71.67
68842;SHT35;55849;48.482;2.332;2023-04-06T08:55:35;13.03;71.40
68842;SHT35;55849;48.482;2.332;2023-04-06T08:58:39;13.05;70.57
68842;SHT35;55849;48.482;2.332;2023-04-06T09:01:42;13.05;71.20
68842;SHT35;55849;48.482;2.332;2023-04-06T09:04:46;13.08;70.98
68842;SHT35;55849;48.482;2.332;2023-04-06T09:07:49;13.10;71.45
68842;SHT35;55849;48.482;2.332;2023-04-06T09:10:51;13.10;70.24
68842;SHT35;55849;48.482;2.332;2023-04-06T09:13:55;13.10;70.58
68842;SHT35;55849;48.482;2.332;2023-04-06T09:16:57;13.10;71.16
68842;SHT35;55849;48.482;2.332;2023-04-06T09:19:59;13.10;70.91
68842;SHT35;55849;48.482;2.332;2023-04-06T09:23:02;13.16;72.16
68842;SHT35;55849;48.482;2.332;2023-04-06T09:26:08;13.20;70.90
68842;SHT35;55849;48.482;2.332;2023-04-06T09:29:22;13.20;70.86
68842;SHT35;55849;48.482;2.332;2023-04-06T09:32:23;13.18;71.04
68842;SHT35;55849;48.482;2.332;2023-04-06T09:35:25;13.18;71.65
68842;SHT35;55849;48.482;2.332;2023-04-06T09:38:29;13.18;70.85
68842;SHT35;55849;48.482;2.332;2023-04-06T09:41:32;13.15;70.56
68842;SHT35;55849;48.482;2.332;2023-04-06T09:44:35;13.18;71.12
68842;SHT35;55849;48.482;2.332;2023-04-06T09:47:39;13.18;70.78
68842;SHT35;55849;48.482;2.332;2023-04-06T09:50:41;13.16;70.23
68842;SHT35;55849;48.482;2.332;2023-04-06T09:53:44;13.15;70.52
68842;SHT35;55849;48.482;2.332;2023-04-06T09:56:56;13.09;70.99
68842;SHT35;55849;48.482;2.332;2023-04-06T10:00:04;13.13;70.41
68842;SHT35;55849;48.482;2.332;2023-04-06T10:03:17;13.15;71.06
68842;SHT35;55849;48.482;2.332;2023-04-06T10:06:23;13.18;71.26
68842;SHT35;55849;48.482;2.332;2023-04-06T10:09:29;13.19;71.24
68842;SHT35;55849;48.482;2.332;2023-04-06T10:12:36;13.22;69.21
68842;SHT35;55849;48.482;2.332;2023-04-06T10:15:40;13.22;70.66
68842;SHT35;55849;48.482;2.332;2023-04-06T10:18:46;13.24;70.52
68842;SHT35;55849;48.482;2.332;2023-04-06T10:21:51;13.23;70.91
68842;SHT35;55849;48.482;2.332;2023-04-06T10:24:55;13.24;71.44
68842;SHT35;55849;48.482;2.332;2023-04-06T10:28:00;13.27;70.40
68842;SHT35;55849;48.482;2.332;2023-04-06T10:31:05;13.30;70.66
68842;SHT35;55849;48.482;2.332;2023-04-06T10:34:07;13.29;70.82
68842;SHT35;55849;48.482;2.332;2023-04-06T10:37:13;13.32;71.42
68842;SHT35;55849;48.482;2.332;2023-04-06T10:40:24;13.35;70.84
68842;SHT35;55849;48.482;2.332;2023-04-06T10:43:26;13.37;70.76
68842;SHT35;55849;48.482;2.332;2023-04-06T10:46:30;13.42;70.96
68842;SHT35;55849;48.482;2.332;2023-04-06T10:49:32;13.48;70.91
68842;SHT35;55849;48.482;2.332;2023-04-06T10:52:34;13.57;71.57
68842;SHT35;55849;48.482;2.332;2023-04-06T10:55:39;13.64;70.97
68842;SHT35;55849;48.482;2.332;2023-04-06T10:58:44;13.68;70.56
68842;SHT35;55849;48.482;2.332;2023-04-06T11:01:48;13.72;70.67
68842;SHT35;55849;48.482;2.332;2023-04-06T11:04:56;13.74;71.52
68842;SHT35;55849;48.482;2.332;2023-04-06T11:07:58;13.79;71.30
68842;SHT35;55849;48.482;2.332;2023-04-06T11:11:06;13.82;70.76
68842;SHT35;55849;48.482;2.332;2023-04-06T11:14:09;13.83;70.96
68842;SHT35;55849;48.482;2.332;2023-04-06T11:17:12;13.89;71.58
68842;SHT35;55849;48.482;2.332;2023-04-06T11:20:14;13.90;70.92
68842;SHT35;55849;48.482;2.332;2023-04-06T11:23:22;13.95;70.86
68842;SHT35;55849;48.482;2.332;2023-04-06T11:26:24;14.03;71.61
68842;SHT35;55849;48.482;2.332;2023-04-06T11:29:27;14.10;71.46
68842;SHT35;55849;48.482;2.332;2023-04-06T11:32:39;14.17;71.43
68842;SHT35;55849;48.482;2.332;2023-04-06T11:35:42;14.23;70.86
68842;SHT35;55849;48.482;2.332;2023-04-06T11:38:44;14.30;69.32
68842;SHT35;55849;48.482;2.332;2023-04-06T11:41:47;14.33;69.39
68842;SHT35;55849;48.482;2.332;2023-04-06T11:44:54;14.34;68.64
68842;SHT35;55849;48.482;2.332;2023-04-06T11:47:58;14.36;68.64
68842;SHT35;55849;48.482;2.332;2023-04-06T11:51:01;14.38;68.86
68842;SHT35;55849;48.482;2.332;2023-04-06T11:54:05;14.34;68.14
68842;SHT35;55849;48.482;2.332;2023-04-06T11:57:08;14.30;68.62
68842;SHT35;55849;48.482;2.332;2023-04-06T12:00:11;14.29;69.18
68842;SHT35;55849;48.482;2.332;2023-04-06T12:03:14;14.26;68.99
68842;SHT35;55849;48.482;2.332;2023-04-06T12:06:16;14.23;69.01
68842;SHT35;55849;48.482;2.332;2023-04-06T12:09:18;14.20;69.02
68842;SHT35;55849;48.482;2.332;2023-04-06T12:12:20;14.24;69.66
68842;SHT35;55849;48.482;2.332;2023-04-06T12:15:21;14.31;69.30
68842;SHT35;55849;48.482;2.332;2023-04-06T12:18:24;14.36;68.75
68842;SHT35;55849;48.482;2.332;2023-04-06T12:21:26;14.41;69.50
68842;SHT35;55849;48.482;2.332;2023-04-06T12:24:28;14.51;69.05
68842;SHT35;55849;48.482;2.332;2023-04-06T12:27:30;14.68;70.36
68842;SHT35;55849;48.482;2.332;2023-04-06T12:30:31;14.93;70.43
68842;SHT35;55849;48.482;2.332;2023-04-06T12:33:34;15.16;69.29
68842;SHT35;55849;48.482;2.332;2023-04-06T12:36:37;15.41;68.20
68842;SHT35;55849;48.482;2.332;2023-04-06T12:39:39;15.63;67.88
68842;SHT35;55849;48.482;2.332;2023-04-06T12:42:40;15.82;67.82
68842;SHT35;55849;48.482;2.332;2023-04-06T12:45:42;16.02;65.96
68842;SHT35;55849;48.482;2.332;2023-04-06T12:48:45;16.17;66.68
68842;SHT35;55849;48.482;2.332;2023-04-06T12:51:48;16.29;64.76
68842;SHT35;55849;48.482;2.332;2023-04-06T12:54:50;16.44;64.28
68842;SHT35;55849;48.482;2.332;2023-04-06T12:57:53;16.58;64.13
68842;SHT35;55849;48.482;2.332;2023-04-06T13:00:55;16.72;63.47
68842;SHT35;55849;48.482;2.332;2023-04-06T13:04:04;16.75;61.65
68842;SHT35;55849;48.482;2.332;2023-04-06T13:07:06;16.70;62.29
68842;SHT35;55849;48.482;2.332;2023-04-06T13:10:08;16.66;61.58
68842;SHT35;55849;48.482;2.332;2023-04-06T13:13:10;16.63;62.30
68842;SHT35;55849;48.482;2.332;2023-04-06T13:16:11;16.66;62.49
68842;SHT35;55849;48.482;2.332;2023-04-06T13:19:14;16.72;62.54
68842;SHT35;55849;48.482;2.332;2023-04-06T13:22:16;16.80;61.91
68842;SHT35;55849;48.482;2.332;2023-04-06T13:25:18;16.89;61.26
68842;SHT35;55849;48.482;2.332;2023-04-06T13:28:20;16.91;61.18
68842;SHT35;55849;48.482;2.332;2023-04-06T13:31:22;16.94;61.17
68842;SHT35;55849;48.482;2.332;2023-04-06T13:34:25;16.94;60.37
68842;SHT35;55849;48.482;2.332;2023-04-06T13:37:27;16.90;60.42
68842;SHT35;55849;48.482;2.332;2023-04-06T13:40:29;16.87;60.80
68842;SHT35;55849;48.482;2.332;2023-04-06T13:43:31;16.87;61.11
68842;SHT35;55849;48.482;2.332;2023-04-06T13:46:33;16.87;60.11
68842;SHT35;55849;48.482;2.332;2023-04-06T13:49:36;16.86;59.56
68842;SHT35;55849;48.482;2.332;2023-04-06T13:52:38;16.81;59.84
68842;SHT35;55849;48.482;2.332;2023-04-06T13:55:39;16.75;59.68
68842;SHT35;55849;48.482;2.332;2023-04-06T13:58:41;16.72;59.09
68842;SHT35;55849;48.482;2.332;2023-04-06T14:01:43;16.63;59.29
68842;SHT35;55849;48.482;2.332;2023-04-06T14:04:46;16.59;58.97
68842;SHT35;55849;48.482;2.332;2023-04-06T14:07:47;16.55;59.31
68842;SHT35;55849;48.482;2.332;2023-04-06T14:10:49;16.51;59.21
68842;SHT35;55849;48.482;2.332;2023-04-06T14:13:50;16.45;59.40
68842;SHT35;55849;48.482;2.332;2023-04-06T14:16:52;16.45;59.39
68842;SHT35;55849;48.482;2.332;2023-04-06T14:19:56;16.40;59.29
68842;SHT35;55849;48.482;2.332;2023-04-06T14:22:59;16.35;59.41
68842;SHT35;55849;48.482;2.332;2023-04-06T14:26:02;16.31;59.86
68842;SHT35;55849;48.482;2.332;2023-04-06T14:29:05;16.32;59.70
68842;SHT35;55849;48.482;2.332;2023-04-06T14:32:07;16.37;60.31
68842;SHT35;55849;48.482;2.332;2023-04-06T14:35:10;16.48;60.27
68842;SHT35;55849;48.482;2.332;2023-04-06T14:38:12;16.68;60.21
68842;SHT35;55849;48.482;2.332;2023-04-06T14:41:18;17.00;60.63
68842;SHT35;55849;48.482;2.332;2023-04-06T14:44:20;17.38;60.00
68842;SHT35;55849;48.482;2.332;2023-04-06T14:47:22;17.69;58.51
68842;SHT35;55849;48.482;2.332;2023-04-06T14:50:25;17.90;57.44
68842;SHT35;55849;48.482;2.332;2023-04-06T14:53:27;18.05;57.68
68842;SHT35;55849;48.482;2.332;2023-04-06T14:56:29;18.21;57.27
68842;SHT35;55849;48.482;2.332;2023-04-06T14:59:31;18.33;57.04
68842;SHT35;55849;48.482;2.332;2023-04-06T15:02:33;18.56;56.86
68842;SHT35;55849;48.482;2.332;2023-04-06T15:05:36;18.81;55.99
68842;SHT35;55849;48.482;2.332;2023-04-06T15:08:38;19.02;55.45
68842;SHT35;55849;48.482;2.332;2023-04-06T15:11:39;19.23;56.03
68842;SHT35;55849;48.482;2.332;2023-04-06T15:14:41;19.47;54.41
68842;SHT35;55849;48.482;2.332;2023-04-06T15:17:42;19.63;54.13
68842;SHT35;55849;48.482;2.332;2023-04-06T15:20:45;19.73;53.12
68842;SHT35;55849;48.482;2.332;2023-04-06T15:23:47;19.85;53.99
68842;SHT35;55849;48.482;2.332;2023-04-06T15:26:50;20.04;52.44
68842;SHT35;55849;48.482;2.332;2023-04-06T15:29:51;20.08;53.21
68842;SHT35;55849;48.482;2.332;2023-04-06T15:32:57;20.16;53.16
68842;SHT35;55849;48.482;2.332;2023-04-06T15:36:06;20.36;52.88
68842;SHT35;55849;48.482;2.332;2023-04-06T15:39:09;20.51;52.05
68842;SHT35;55849;48.482;2.332;2023-04-06T15:42:11;20.67;51.39
68842;SHT35;55849;48.482;2.332;2023-04-06T15:45:13;20.80;51.46
68842;SHT35;55849;48.482;2.332;2023-04-06T15:48:14;20.88;50.88
68842;SHT35;55849;48.482;2.332;2023-04-06T15:51:17;20.98;51.34
68842;SHT35;55849;48.482;2.332;2023-04-06T15:54:19;21.05;51.20
68842;SHT35;55849;48.482;2.332;2023-04-06T15:57:21;21.10;50.55
68842;SHT35;55849;48.482;2.332;2023-04-06T16:00:23;21.15;50.61
68842;SHT35;55849;48.482;2.332;2023-04-06T16:03:26;21.18;50.30
68842;SHT35;55849;48.482;2.332;2023-04-06T16:06:29;21.25;50.93
68842;SHT35;55849;48.482;2.332;2023-04-06T16:09:31;21.29;50.04
68842;SHT35;55849;48.482;2.332;2023-04-06T16:12:33;21.36;50.44
68842;SHT35;55849;48.482;2.332;2023-04-06T16:15:35;21.47;50.23
68842;SHT35;55849;48.482;2.332;2023-04-06T16:18:36;21.51;49.43
68842;SHT35;55849;48.482;2.332;2023-04-06T16:21:39;21.51;48.99
68842;SHT35;55849;48.482;2.332;2023-04-06T16:24:41;21.41;49.29
68842;SHT35;55849;48.482;2.332;2023-04-06T16:27:43;21.27;49.39
68842;SHT35;55849;48.482;2.332;2023-04-06T16:30:45;21.09;49.26
68842;SHT35;55849;48.482;2.332;2023-04-06T16:33:47;20.94;49.98
68842;SHT35;55849;48.482;2.332;2023-04-06T16:36:50;20.91;50.06
68842;SHT35;55849;48.482;2.332;2023-04-06T16:39:52;20.90;49.81
68842;SHT35;55849;48.482;2.332;2023-04-06T16:42:53;20.88;49.14
68842;SHT35;55849;48.482;2.332;2023-04-06T16:45:55;20.71;50.17
68842;SHT35;55849;48.482;2.332;2023-04-06T16:48:57;20.63;50.13
68842;SHT35;55849;48.482;2.332;2023-04-06T16:52:00;20.49;50.32
68842;SHT35;55849;48.482;2.332;2023-04-06T16:55:04;20.36;51.02
68842;SHT35;55849;48.482;2.332;2023-04-06T16:58:06;20.21;51.09
68842;SHT35;55849;48.482;2.332;2023-04-06T17:01:16;19.98;51.62
68842;SHT35;55849;48.482;2.332;2023-04-06T17:04:19;19.85;51.99
68842;SHT35;55849;48.482;2.332;2023-04-06T17:07:22;19.69;52.32
68842;SHT35;55849;48.482;2.332;2023-04-06T17:10:25;19.54;52.47
68842;SHT35;55849;48.482;2.332;2023-04-06T17:13:27;19.45;52.64
68842;SHT35;55849;48.482;2.332;2023-04-06T17:16:29;19.26;52.66
68842;SHT35;55849;48.482;2.332;2023-04-06T17:19:30;19.12;53.41
68842;SHT35;55849;48.482;2.332;2023-04-06T17:22:33;19.01;54.13
68842;SHT35;55849;48.482;2.332;2023-04-06T17:25:35;18.84;54.45
68842;SHT35;55849;48.482;2.332;2023-04-06T17:28:36;18.73;54.83
68842;SHT35;55849;48.482;2.332;2023-04-06T17:31:38;18.60;54.85
68842;SHT35;55849;48.482;2.332;2023-04-06T17:34:40;18.45;55.39
68842;SHT35;55849;48.482;2.332;2023-04-06T17:37:43;18.32;55.60
68842;SHT35;55849;48.482;2.332;2023-04-06T17:40:45;18.18;56.19
68842;SHT35;55849;48.482;2.332;2023-04-06T17:43:46;18.08;56.34
68842;SHT35;55849;48.482;2.332;2023-04-06T17:46:48;18.01;56.69
68842;SHT35;55849;48.482;2.332;2023-04-06T17:49:50;17.91;56.77
68842;SHT35;55849;48.482;2.332;2023-04-06T17:52:53;17.87;57.26
68842;SHT35;55849;48.482;2.332;2023-04-06T17:55:54;17.83;57.55
68842;SHT35;55849;48.482;2.332;2023-04-06T17:58:56;17.76;57.58
68842;SHT35;55849;48.482;2.332;2023-04-06T18:01:58;17.70;57.86
68842;SHT35;55849;48.482;2.332;2023-04-06T18:04:59;17.61;58.04
68842;SHT35;55849;48.482;2.332;2023-04-06T18:08:02;17.57;58.45
68842;SHT35;55849;48.482;2.332;2023-04-06T18:11:04;17.49;58.42
68842;SHT35;55849;48.482;2.332;2023-04-06T18:14:06;17.42;58.71
68842;SHT35;55849;48.482;2.332;2023-04-06T18:17:08;17.36;58.75
68842;SHT35;55849;48.482;2.332;2023-04-06T18:20:10;17.28;58.94
68842;SHT35;55849;48.482;2.332;2023-04-06T18:23:13;17.21;59.06
68842;SHT35;55849;48.482;2.332;2023-04-06T18:26:16;17.20;59.26
68842;SHT35;55849;48.482;2.332;2023-04-06T18:29:18;17.15;59.14
68842;SHT35;55849;48.482;2.332;2023-04-06T18:32:20;17.10;59.36
68842;SHT35;55849;48.482;2.332;2023-04-06T18:35:21;17.03;59.50
68842;SHT35;55849;48.482;2.332;2023-04-06T18:38:24;16.99;59.62
68842;SHT35;55849;48.482;2.332;2023-04-06T18:41:26;16.94;59.76
68842;SHT35;55849;48.482;2.332;2023-04-06T18:44:27;16.91;59.75
68842;SHT35;55849;48.482;2.332;2023-04-06T18:47:30;16.86;59.87
68842;SHT35;55849;48.482;2.332;2023-04-06T18:50:32;16.86;59.94
68842;SHT35;55849;48.482;2.332;2023-04-06T18:53:35;16.80;59.88
68842;SHT35;55849;48.482;2.332;2023-04-06T18:56:36;16.76;59.93
68842;SHT35;55849;48.482;2.332;2023-04-06T18:59:39;16.70;59.85
68842;SHT35;55849;48.482;2.332;2023-04-06T19:02:41;16.65;60.15
68842;SHT35;55849;48.482;2.332;2023-04-06T19:05:43;16.61;60.13
68842;SHT35;55849;48.482;2.332;2023-04-06T19:08:46;16.55;60.43
68842;SHT35;55849;48.482;2.332;2023-04-06T19:11:48;16.51;60.30